SABESACO

Guest
Details From SABE - Aeroparque Jorge Newbery
To SACO - Ambrosio L V Taravella
Flight Number -
Tags Generated
Created
Modified
Stats Distance 350 nm / 648 km
Max Altitude 0 ft / 0 m
Waypoints 3
Social Downloads 6
Likes 0
Share VATSIM

Download

Looking for another format? Having issues loading an existing format? Contact us
Advertisement - Login to hide

Notes

Generated

Route

SABE ASEMI SACO

ID Type Via Altitude Latitude Longitude Leg Dist Tot Dist Heading (true) Name
O SABE APT - 0 ft / 0 m -34.55416˚ -58.42526˚ - 0 nm - -
ASEMI FIX - 0 ft / 0 m -31.39694˚ -64.08250˚ 342 nm 342 nm 302° / 305° -
O SACO APT - 0 ft / 0 m -31.32481˚ -64.20926˚ 7 nm 350 nm 304° / 304° -

Altitude Profile

Advertisement - Login to hide

Weather


0- 5 10 15 20 25 30 35+ Temperature / ° C

Clouds and Precipitation
Forecast for 2017-12-17 12:00 UTC. Updated 37 minutes ago

Ground ~20,000 ft ~40,000 ft Winds

SABE

Details ICAO SABE (AEP)
Name Aeroparque Jorge Newbery
Region Argentina
Timezone Unknown (UTC+0.0)
Stats Elevation 17 ft / 5 m (AMSL)
Location -34.559414° -58.415749°
Runways 1
Magnetic Variation 8.982° W

METAR

SABE 171100Z 20011KT 9999 FEW020 18/13 Q1009

Decode

TAF

TAF SABE 171100Z 1712/1812 20015KT 9999 SCT020 BKN100 TX24/1719Z TN15/1810Z BECMG 1717/1719 16010KT CAVOK BECMG 1802/1804 10020KT 9999 SCT015 BKN020 BECMG 1806/1808 07015KT BKN015

Decode

Departure Runways

ID Width Length Bearing (true) Bearing (mag) Surface Threshold Offset Overrun Length
13 131 ft / 40 m 6,882 ft / 2,098 m 123.87° 132.85° Concrete 0 ft / 0 m 791 ft / 241 m
31 131 ft / 40 m 6,882 ft / 2,098 m 303.86° 312.84° Concrete 991 ft / 302 m 0 ft / 0 m

SACO

Details ICAO SACO (COR)
Name AMBROSIO L V TARAVELLA
Region Argentina
Timezone America/Argentina/Cordoba (UTC-3.0)
Stats Elevation 1,604 ft / 489 m (AMSL)
Location -31.313499° -64.204123°
Runways 2
Magnetic Variation 5.558° W

METAR

SACO 171100Z 21019KT 9000 FEW030 18/01 Q1018

Decode

TAF

TAF SACO 171100Z 1712/1812 20025KT 7000 DU SCT030 TX27/1718Z TN13/1810Z BECMG 1714/1717 18015KT 9999 SCT030

Decode

Destination Runways

ID Width Length Bearing (true) Bearing (mag) Surface Threshold Offset Overrun Length
05 148 ft / 45 m 8,091 ft / 2,466 m 44.19° 49.75° Asphalt 840 ft / 256 m 0 ft / 0 m
18 148 ft / 45 m 10,441 ft / 3,182 m 179.75° 185.31° Concrete 0 ft / 0 m 0 ft / 0 m
23 148 ft / 45 m 8,091 ft / 2,466 m 224.18° 229.74° Asphalt 0 ft / 0 m 82 ft / 25 m
36 148 ft / 45 m 10,441 ft / 3,182 m 359.75° 5.31° Concrete 0 ft / 0 m 460 ft / 140 m

Approach Navaids

Runway Type Ident Frequency Range Bearing (true) Bearing (mag) Slope Elevation
18 Localiser CB 110.30 MHz 18 nm / 33 km 179.96° 185.52° - 1,604 ft / 489 m (AMSL)
18 Glidescope CB 110.30 MHz 10 nm / 19 km 179.75° 185.31° 2.50° 1,604 ft / 489 m (AMSL)
18 DME CB 110.30 MHz 18 nm / 33 km - - - 1,523 ft / 464 m (AMSL)

Popular Alternatives